Victoria Beach, Canada
Current Conditions -  °F | °C
As of 5:00 PM on Monday 24 Nov 2014 (Local Time) from CYWG Reporting Station
Few Clouds Few Clouds  
Wind Chill: -11°   Ceiling: Unl
Heat Index:   Visibility: 15mi
Dew Point: -2°   Wind: 12mph
Humidity: 72%   Direction: 300°WNW
Pressure: 29.95"   Gusts: NA
Location:  50.7°N, 96.53°W
Report Text: CYWG 242300Z 30010KT 15SM FEW250 M15/M19 A2995 RMK CI1 SLP166
Loading
Personal Weather Stations






























Interactive Weather Map New forecast layout! Learn more

10-Day Weather Forecast

Advertisements
Track Severe Weather on mobile